sensor_id;sensor_type;location;lat;lon;timestamp;P1;durP1;ratioP1;P2;durP2;ratioP2
41887;SDS011;63122;52.424;13.458;2023-07-31T00:00:22;2.90;;;1.45;;
41887;SDS011;63122;52.424;13.458;2023-07-31T00:02:37;3.65;;;1.38;;
41887;SDS011;63122;52.424;13.458;2023-07-31T00:04:33;5.00;;;1.73;;
41887;SDS011;63122;52.424;13.458;2023-07-31T00:06:31;2.92;;;1.33;;
41887;SDS011;63122;52.424;13.458;2023-07-31T00:08:26;4.28;;;1.60;;
41887;SDS011;63122;52.424;13.458;2023-07-31T00:10:19;5.53;;;1.60;;
41887;SDS011;63122;52.424;13.458;2023-07-31T00:12:14;2.97;;;1.35;;
41887;SDS011;63122;52.424;13.458;2023-07-31T00:14:07;3.83;;;1.50;;
41887;SDS011;63122;52.424;13.458;2023-07-31T00:16:02;2.83;;;1.30;;
41887;SDS011;63122;52.424;13.458;2023-07-31T00:17:58;5.28;;;1.70;;
41887;SDS011;63122;52.424;13.458;2023-07-31T00:19:53;3.92;;;1.83;;
41887;SDS011;63122;52.424;13.458;2023-07-31T00:21:51;5.35;;;1.90;;
41887;SDS011;63122;52.424;13.458;2023-07-31T00:23:44;5.90;;;2.10;;
41887;SDS011;63122;52.424;13.458;2023-07-31T00:25:39;4.90;;;1.70;;
41887;SDS011;63122;52.424;13.458;2023-07-31T00:27:32;6.43;;;1.70;;
41887;SDS011;63122;52.424;13.458;2023-07-31T00:29:27;3.78;;;1.75;;
41887;SDS011;63122;52.424;13.458;2023-07-31T00:31:23;5.50;;;2.00;;
41887;SDS011;63122;52.424;13.458;2023-07-31T00:33:18;4.82;;;1.92;;
41887;SDS011;63122;52.424;13.458;2023-07-31T00:35:13;5.30;;;1.80;;
41887;SDS011;63122;52.424;13.458;2023-07-31T00:37:11;4.68;;;1.90;;
41887;SDS011;63122;52.424;13.458;2023-07-31T00:39:04;4.63;;;1.50;;
41887;SDS011;63122;52.424;13.458;2023-07-31T00:40:59;5.57;;;1.95;;
41887;SDS011;63122;52.424;13.458;2023-07-31T00:42:54;4.13;;;1.90;;
41887;SDS011;63122;52.424;13.458;2023-07-31T00:44:47;4.03;;;1.90;;
41887;SDS011;63122;52.424;13.458;2023-07-31T00:46:42;5.00;;;1.70;;
41887;SDS011;63122;52.424;13.458;2023-07-31T00:48:37;6.28;;;1.90;;
41887;SDS011;63122;52.424;13.458;2023-07-31T00:50:34;5.65;;;1.60;;
41887;SDS011;63122;52.424;13.458;2023-07-31T00:52:32;4.72;;;1.60;;
41887;SDS011;63122;52.424;13.458;2023-07-31T00:54:27;4.95;;;2.00;;
41887;SDS011;63122;52.424;13.458;2023-07-31T00:56:23;4.57;;;2.00;;
41887;SDS011;63122;52.424;13.458;2023-07-31T00:58:19;3.28;;;1.58;;
41887;SDS011;63122;52.424;13.458;2023-07-31T01:00:15;5.20;;;2.05;;
41887;SDS011;63122;52.424;13.458;2023-07-31T01:02:10;5.00;;;1.73;;
41887;SDS011;63122;52.424;13.458;2023-07-31T01:04:05;5.82;;;1.77;;
41887;SDS011;63122;52.424;13.458;2023-07-31T01:06:04;6.75;;;2.33;;
41887;SDS011;63122;52.424;13.458;2023-07-31T01:08:12;2.80;;;1.70;;
41887;SDS011;63122;52.424;13.458;2023-07-31T01:10:15;8.18;;;2.08;;
41887;SDS011;63122;52.424;13.458;2023-07-31T01:12:14;4.60;;;2.15;;
41887;SDS011;63122;52.424;13.458;2023-07-31T01:14:08;4.57;;;1.80;;
41887;SDS011;63122;52.424;13.458;2023-07-31T01:16:03;7.13;;;2.22;;
41887;SDS011;63122;52.424;13.458;2023-07-31T01:17:58;6.65;;;2.33;;
41887;SDS011;63122;52.424;13.458;2023-07-31T01:19:55;4.38;;;2.10;;
41887;SDS011;63122;52.424;13.458;2023-07-31T01:24:33;5.45;;;2.13;;
41887;SDS011;63122;52.424;13.458;2023-07-31T01:26:38;5.93;;;2.30;;
41887;SDS011;63122;52.424;13.458;2023-07-31T01:28:33;6.90;;;2.78;;
41887;SDS011;63122;52.424;13.458;2023-07-31T01:30:43;6.38;;;2.00;;
41887;SDS011;63122;52.424;13.458;2023-07-31T01:32:43;5.28;;;2.30;;
41887;SDS011;63122;52.424;13.458;2023-07-31T01:34:39;6.85;;;2.70;;
41887;SDS011;63122;52.424;13.458;2023-07-31T01:36:35;7.60;;;2.33;;
41887;SDS011;63122;52.424;13.458;2023-07-31T01:38:29;7.32;;;2.35;;
41887;SDS011;63122;52.424;13.458;2023-07-31T01:40:24;7.85;;;2.40;;
41887;SDS011;63122;52.424;13.458;2023-07-31T01:42:19;6.05;;;2.17;;
41887;SDS011;63122;52.424;13.458;2023-07-31T01:44:14;9.15;;;2.63;;
41887;SDS011;63122;52.424;13.458;2023-07-31T01:46:07;10.88;;;2.63;;
41887;SDS011;63122;52.424;13.458;2023-07-31T01:48:02;8.80;;;2.38;;
41887;SDS011;63122;52.424;13.458;2023-07-31T01:49:58;6.22;;;2.45;;
41887;SDS011;63122;52.424;13.458;2023-07-31T01:51:53;6.53;;;2.58;;
41887;SDS011;63122;52.424;13.458;2023-07-31T01:53:48;4.90;;;2.50;;
41887;SDS011;63122;52.424;13.458;2023-07-31T01:55:41;7.95;;;2.88;;
41887;SDS011;63122;52.424;13.458;2023-07-31T01:57:38;6.90;;;2.30;;
41887;SDS011;63122;52.424;13.458;2023-07-31T01:59:31;5.90;;;2.55;;
41887;SDS011;63122;52.424;13.458;2023-07-31T02:01:26;7.45;;;2.55;;
41887;SDS011;63122;52.424;13.458;2023-07-31T02:03:22;14.88;;;2.42;;
41887;SDS011;63122;52.424;13.458;2023-07-31T02:05:17;8.38;;;2.80;;
41887;SDS011;63122;52.424;13.458;2023-07-31T02:07:10;10.80;;;2.67;;
41887;SDS011;63122;52.424;13.458;2023-07-31T02:09:05;8.73;;;2.55;;
41887;SDS011;63122;52.424;13.458;2023-07-31T02:10:58;5.88;;;2.70;;
41887;SDS011;63122;52.424;13.458;2023-07-31T02:15:11;7.82;;;2.90;;
41887;SDS011;63122;52.424;13.458;2023-07-31T02:17:07;9.32;;;2.90;;
41887;SDS011;63122;52.424;13.458;2023-07-31T02:19:03;9.50;;;2.92;;
41887;SDS011;63122;52.424;13.458;2023-07-31T02:20:59;7.22;;;2.95;;
41887;SDS011;63122;52.424;13.458;2023-07-31T02:22:51;7.97;;;2.78;;
41887;SDS011;63122;52.424;13.458;2023-07-31T02:24:46;9.02;;;2.95;;
41887;SDS011;63122;52.424;13.458;2023-07-31T02:26:42;5.85;;;2.90;;
41887;SDS011;63122;52.424;13.458;2023-07-31T02:28:40;16.63;;;3.65;;
41887;SDS011;63122;52.424;13.458;2023-07-31T02:30:36;6.72;;;2.90;;
41887;SDS011;63122;52.424;13.458;2023-07-31T02:32:32;8.90;;;2.92;;
41887;SDS011;63122;52.424;13.458;2023-07-31T02:34:27;6.65;;;2.97;;
41887;SDS011;63122;52.424;13.458;2023-07-31T02:36:23;5.95;;;2.92;;
41887;SDS011;63122;52.424;13.458;2023-07-31T02:38:18;6.90;;;3.22;;
41887;SDS011;63122;52.424;13.458;2023-07-31T02:40:13;5.15;;;2.88;;
41887;SDS011;63122;52.424;13.458;2023-07-31T02:42:08;7.60;;;3.35;;
41887;SDS011;63122;52.424;13.458;2023-07-31T02:44:06;8.02;;;3.25;;
41887;SDS011;63122;52.424;13.458;2023-07-31T02:46:02;8.70;;;3.33;;
41887;SDS011;63122;52.424;13.458;2023-07-31T02:47:57;5.50;;;2.97;;
41887;SDS011;63122;52.424;13.458;2023-07-31T02:49:53;8.32;;;3.35;;
41887;SDS011;63122;52.424;13.458;2023-07-31T02:51:48;9.23;;;3.33;;
41887;SDS011;63122;52.424;13.458;2023-07-31T02:53:40;9.23;;;3.15;;
41887;SDS011;63122;52.424;13.458;2023-07-31T02:55:35;9.00;;;3.80;;
41887;SDS011;63122;52.424;13.458;2023-07-31T02:57:31;6.75;;;3.78;;
41887;SDS011;63122;52.424;13.458;2023-07-31T02:59:27;7.15;;;3.05;;
41887;SDS011;63122;52.424;13.458;2023-07-31T03:01:26;7.25;;;3.40;;
41887;SDS011;63122;52.424;13.458;2023-07-31T03:03:22;7.35;;;3.10;;
41887;SDS011;63122;52.424;13.458;2023-07-31T03:05:17;10.80;;;3.53;;
41887;SDS011;63122;52.424;13.458;2023-07-31T03:07:10;7.28;;;3.20;;
41887;SDS011;63122;52.424;13.458;2023-07-31T03:09:05;9.23;;;3.17;;
41887;SDS011;63122;52.424;13.458;2023-07-31T03:11:00;4.72;;;3.08;;
41887;SDS011;63122;52.424;13.458;2023-07-31T03:12:56;7.95;;;3.28;;
41887;SDS011;63122;52.424;13.458;2023-07-31T03:14:53;9.07;;;3.40;;
41887;SDS011;63122;52.424;13.458;2023-07-31T03:16:49;6.38;;;3.35;;
41887;SDS011;63122;52.424;13.458;2023-07-31T03:18:44;9.98;;;3.67;;
41887;SDS011;63122;52.424;13.458;2023-07-31T03:20:41;9.65;;;3.28;;
41887;SDS011;63122;52.424;13.458;2023-07-31T03:22:38;7.50;;;3.42;;
41887;SDS011;63122;52.424;13.458;2023-07-31T03:24:33;9.13;;;3.63;;
41887;SDS011;63122;52.424;13.458;2023-07-31T03:26:30;11.63;;;3.25;;
41887;SDS011;63122;52.424;13.458;2023-07-31T03:28:27;11.30;;;3.50;;
41887;SDS011;63122;52.424;13.458;2023-07-31T03:30:23;7.20;;;3.17;;
41887;SDS011;63122;52.424;13.458;2023-07-31T03:32:19;4.95;;;2.92;;
41887;SDS011;63122;52.424;13.458;2023-07-31T03:34:12;6.40;;;3.25;;
41887;SDS011;63122;52.424;13.458;2023-07-31T03:36:07;6.55;;;3.08;;
41887;SDS011;63122;52.424;13.458;2023-07-31T03:38:03;7.50;;;2.90;;
41887;SDS011;63122;52.424;13.458;2023-07-31T03:39:59;11.75;;;3.33;;
41887;SDS011;63122;52.424;13.458;2023-07-31T03:41:55;10.27;;;3.03;;
41887;SDS011;63122;52.424;13.458;2023-07-31T03:43:51;7.60;;;3.63;;
41887;SDS011;63122;52.424;13.458;2023-07-31T03:45:51;10.15;;;3.03;;
41887;SDS011;63122;52.424;13.458;2023-07-31T03:47:44;10.35;;;2.90;;
41887;SDS011;63122;52.424;13.458;2023-07-31T03:49:40;12.45;;;3.30;;
41887;SDS011;63122;52.424;13.458;2023-07-31T03:51:35;9.40;;;3.60;;
41887;SDS011;63122;52.424;13.458;2023-07-31T03:53:28;10.35;;;3.00;;
41887;SDS011;63122;52.424;13.458;2023-07-31T03:55:24;10.07;;;3.60;;
41887;SDS011;63122;52.424;13.458;2023-07-31T03:57:19;6.10;;;3.10;;
41887;SDS011;63122;52.424;13.458;2023-07-31T03:59:15;6.05;;;2.92;;
41887;SDS011;63122;52.424;13.458;2023-07-31T04:01:13;9.98;;;3.25;;
41887;SDS011;63122;52.424;13.458;2023-07-31T04:03:09;7.40;;;3.22;;
41887;SDS011;63122;52.424;13.458;2023-07-31T04:05:02;9.55;;;3.13;;
41887;SDS011;63122;52.424;13.458;2023-07-31T04:06:58;9.52;;;3.47;;
41887;SDS011;63122;52.424;13.458;2023-07-31T04:08:56;10.00;;;3.60;;
41887;SDS011;63122;52.424;13.458;2023-07-31T04:10:52;13.68;;;3.50;;
41887;SDS011;63122;52.424;13.458;2023-07-31T04:12:45;11.35;;;3.15;;
41887;SDS011;63122;52.424;13.458;2023-07-31T04:14:40;8.18;;;3.00;;
41887;SDS011;63122;52.424;13.458;2023-07-31T04:16:38;13.02;;;3.58;;
41887;SDS011;63122;52.424;13.458;2023-07-31T04:18:34;7.47;;;2.92;;
41887;SDS011;63122;52.424;13.458;2023-07-31T04:20:29;13.13;;;3.78;;
41887;SDS011;63122;52.424;13.458;2023-07-31T04:22:25;7.45;;;3.25;;
41887;SDS011;63122;52.424;13.458;2023-07-31T04:24:18;12.80;;;3.42;;
41887;SDS011;63122;52.424;13.458;2023-07-31T04:26:16;10.13;;;3.50;;
41887;SDS011;63122;52.424;13.458;2023-07-31T04:28:12;12.95;;;3.63;;
41887;SDS011;63122;52.424;13.458;2023-07-31T04:30:06;8.73;;;3.55;;
41887;SDS011;63122;52.424;13.458;2023-07-31T04:32:05;8.48;;;3.83;;
41887;SDS011;63122;52.424;13.458;2023-07-31T04:34:00;10.68;;;4.07;;
41887;SDS011;63122;52.424;13.458;2023-07-31T04:35:56;13.85;;;3.78;;
41887;SDS011;63122;52.424;13.458;2023-07-31T04:37:51;10.23;;;4.10;;
41887;SDS011;63122;52.424;13.458;2023-07-31T04:39:47;11.63;;;3.42;;
41887;SDS011;63122;52.424;13.458;2023-07-31T04:41:42;13.30;;;3.75;;
41887;SDS011;63122;52.424;13.458;2023-07-31T04:43:35;6.78;;;3.30;;
41887;SDS011;63122;52.424;13.458;2023-07-31T04:45:31;17.20;;;3.53;;
41887;SDS011;63122;52.424;13.458;2023-07-31T04:47:29;10.80;;;3.40;;
41887;SDS011;63122;52.424;13.458;2023-07-31T04:49:24;7.13;;;3.35;;
41887;SDS011;63122;52.424;13.458;2023-07-31T04:51:19;9.57;;;3.63;;
41887;SDS011;63122;52.424;13.458;2023-07-31T04:53:15;11.38;;;3.60;;
41887;SDS011;63122;52.424;13.458;2023-07-31T04:55:11;8.30;;;3.50;;
41887;SDS011;63122;52.424;13.458;2023-07-31T04:57:04;9.18;;;3.22;;
41887;SDS011;63122;52.424;13.458;2023-07-31T04:59:00;16.23;;;3.20;;
41887;SDS011;63122;52.424;13.458;2023-07-31T05:00:55;5.97;;;2.72;;
41887;SDS011;63122;52.424;13.458;2023-07-31T05:02:53;14.68;;;3.28;;
41887;SDS011;63122;52.424;13.458;2023-07-31T05:04:49;10.98;;;3.05;;
41887;SDS011;63122;52.424;13.458;2023-07-31T05:06:44;11.02;;;3.42;;
41887;SDS011;63122;52.424;13.458;2023-07-31T05:08:40;7.65;;;3.40;;
41887;SDS011;63122;52.424;13.458;2023-07-31T05:10:32;8.80;;;2.88;;
41887;SDS011;63122;52.424;13.458;2023-07-31T05:12:28;9.77;;;2.97;;
41887;SDS011;63122;52.424;13.458;2023-07-31T05:14:20;7.25;;;2.70;;
41887;SDS011;63122;52.424;13.458;2023-07-31T05:16:15;6.13;;;2.58;;
41887;SDS011;63122;52.424;13.458;2023-07-31T05:18:14;5.07;;;2.55;;
41887;SDS011;63122;52.424;13.458;2023-07-31T05:20:09;6.78;;;2.83;;
41887;SDS011;63122;52.424;13.458;2023-07-31T05:22:05;9.65;;;2.97;;
41887;SDS011;63122;52.424;13.458;2023-07-31T05:24:00;4.18;;;2.58;;
41887;SDS011;63122;52.424;13.458;2023-07-31T05:25:53;9.15;;;2.63;;
41887;SDS011;63122;52.424;13.458;2023-07-31T05:27:48;8.05;;;2.85;;
41887;SDS011;63122;52.424;13.458;2023-07-31T05:29:44;9.25;;;2.80;;
41887;SDS011;63122;52.424;13.458;2023-07-31T05:31:36;8.40;;;2.83;;
41887;SDS011;63122;52.424;13.458;2023-07-31T05:33:35;7.70;;;2.53;;
41887;SDS011;63122;52.424;13.458;2023-07-31T05:35:30;8.02;;;3.17;;
41887;SDS011;63122;52.424;13.458;2023-07-31T05:37:23;7.85;;;2.90;;
41887;SDS011;63122;52.424;13.458;2023-07-31T05:39:18;7.93;;;2.90;;
41887;SDS011;63122;52.424;13.458;2023-07-31T05:41:12;9.45;;;2.70;;
41887;SDS011;63122;52.424;13.458;2023-07-31T05:43:07;7.43;;;2.35;;
41887;SDS011;63122;52.424;13.458;2023-07-31T05:45:02;8.30;;;3.20;;
41887;SDS011;63122;52.424;13.458;2023-07-31T05:46:58;8.05;;;2.47;;
41887;SDS011;63122;52.424;13.458;2023-07-31T05:48:53;9.98;;;2.50;;
41887;SDS011;63122;52.424;13.458;2023-07-31T05:50:49;8.68;;;2.72;;
41887;SDS011;63122;52.424;13.458;2023-07-31T05:52:44;8.48;;;2.80;;
41887;SDS011;63122;52.424;13.458;2023-07-31T05:54:41;7.50;;;2.53;;
41887;SDS011;63122;52.424;13.458;2023-07-31T05:56:35;6.38;;;2.58;;
41887;SDS011;63122;52.424;13.458;2023-07-31T05:58:31;5.85;;;2.50;;
41887;SDS011;63122;52.424;13.458;2023-07-31T06:00:26;9.20;;;2.92;;
41887;SDS011;63122;52.424;13.458;2023-07-31T06:02:21;6.50;;;2.35;;
41887;SDS011;63122;52.424;13.458;2023-07-31T06:04:16;5.05;;;2.55;;
41887;SDS011;63122;52.424;13.458;2023-07-31T06:06:16;13.43;;;2.65;;
41887;SDS011;63122;52.424;13.458;2023-07-31T06:08:08;7.93;;;2.90;;
41887;SDS011;63122;52.424;13.458;2023-07-31T06:10:04;8.80;;;2.22;;
41887;SDS011;63122;52.424;13.458;2023-07-31T06:12:01;5.60;;;2.28;;
41887;SDS011;63122;52.424;13.458;2023-07-31T06:13:56;6.80;;;2.58;;
41887;SDS011;63122;52.424;13.458;2023-07-31T06:15:49;6.72;;;2.40;;
41887;SDS011;63122;52.424;13.458;2023-07-31T06:17:44;10.65;;;2.78;;
41887;SDS011;63122;52.424;13.458;2023-07-31T06:19:40;3.90;;;2.50;;
41887;SDS011;63122;52.424;13.458;2023-07-31T06:21:35;9.63;;;2.83;;
41887;SDS011;63122;52.424;13.458;2023-07-31T06:23:30;5.07;;;2.63;;
41887;SDS011;63122;52.424;13.458;2023-07-31T06:25:23;3.80;;;2.10;;
41887;SDS011;63122;52.424;13.458;2023-07-31T06:27:18;10.05;;;2.65;;
41887;SDS011;63122;52.424;13.458;2023-07-31T06:29:11;5.10;;;2.22;;
41887;SDS011;63122;52.424;13.458;2023-07-31T06:31:06;9.75;;;2.75;;
41887;SDS011;63122;52.424;13.458;2023-07-31T06:33:02;5.95;;;2.28;;
41887;SDS011;63122;52.424;13.458;2023-07-31T06:34:58;4.43;;;2.10;;
41887;SDS011;63122;52.424;13.458;2023-07-31T06:36:53;8.52;;;3.05;;
41887;SDS011;63122;52.424;13.458;2023-07-31T06:38:49;8.57;;;2.70;;
41887;SDS011;63122;52.424;13.458;2023-07-31T06:40:44;8.77;;;2.50;;
41887;SDS011;63122;52.424;13.458;2023-07-31T06:42:41;8.40;;;2.83;;
41887;SDS011;63122;52.424;13.458;2023-07-31T06:44:37;8.98;;;2.78;;
41887;SDS011;63122;52.424;13.458;2023-07-31T06:46:32;10.77;;;3.55;;
41887;SDS011;63122;52.424;13.458;2023-07-31T06:48:25;6.88;;;2.45;;
41887;SDS011;63122;52.424;13.458;2023-07-31T06:50:23;11.93;;;3.40;;
41887;SDS011;63122;52.424;13.458;2023-07-31T06:52:16;7.43;;;2.83;;
41887;SDS011;63122;52.424;13.458;2023-07-31T06:54:12;6.80;;;2.80;;
41887;SDS011;63122;52.424;13.458;2023-07-31T06:56:07;9.23;;;2.85;;
41887;SDS011;63122;52.424;13.458;2023-07-31T06:58:03;9.30;;;3.00;;
41887;SDS011;63122;52.424;13.458;2023-07-31T06:59:58;7.47;;;2.90;;
41887;SDS011;63122;52.424;13.458;2023-07-31T07:01:54;10.65;;;2.78;;
41887;SDS011;63122;52.424;13.458;2023-07-31T07:03:50;9.40;;;2.97;;
41887;SDS011;63122;52.424;13.458;2023-07-31T07:05:48;9.85;;;3.20;;
41887;SDS011;63122;52.424;13.458;2023-07-31T07:07:44;7.40;;;2.85;;
41887;SDS011;63122;52.424;13.458;2023-07-31T07:09:39;8.70;;;2.58;;
41887;SDS011;63122;52.424;13.458;2023-07-31T07:11:35;10.77;;;3.45;;
41887;SDS011;63122;52.424;13.458;2023-07-31T07:13:29;8.13;;;2.97;;
41887;SDS011;63122;52.424;13.458;2023-07-31T07:15:25;10.18;;;3.35;;
41887;SDS011;63122;52.424;13.458;2023-07-31T07:17:21;8.63;;;3.33;;
41887;SDS011;63122;52.424;13.458;2023-07-31T07:19:14;8.05;;;2.90;;
41887;SDS011;63122;52.424;13.458;2023-07-31T07:21:12;7.80;;;3.05;;
41887;SDS011;63122;52.424;13.458;2023-07-31T07:23:10;5.47;;;2.85;;
41887;SDS011;63122;52.424;13.458;2023-07-31T07:25:06;7.97;;;3.10;;
41887;SDS011;63122;52.424;13.458;2023-07-31T07:26:59;5.57;;;3.08;;
41887;SDS011;63122;52.424;13.458;2023-07-31T07:28:55;11.85;;;3.30;;
41887;SDS011;63122;52.424;13.458;2023-07-31T07:30:53;17.05;;;2.95;;
41887;SDS011;63122;52.424;13.458;2023-07-31T07:32:48;11.48;;;3.58;;
41887;SDS011;63122;52.424;13.458;2023-07-31T07:34:44;11.25;;;3.10;;
41887;SDS011;63122;52.424;13.458;2023-07-31T07:36:39;7.60;;;3.40;;
41887;SDS011;63122;52.424;13.458;2023-07-31T07:38:35;7.38;;;3.00;;
41887;SDS011;63122;52.424;13.458;2023-07-31T07:40:29;15.55;;;3.25;;
41887;SDS011;63122;52.424;13.458;2023-07-31T07:42:25;7.47;;;2.80;;
41887;SDS011;63122;52.424;13.458;2023-07-31T07:44:17;10.73;;;2.85;;
41887;SDS011;63122;52.424;13.458;2023-07-31T07:46:13;6.63;;;3.10;;
41887;SDS011;63122;52.424;13.458;2023-07-31T07:48:09;8.20;;;3.20;;
41887;SDS011;63122;52.424;13.458;2023-07-31T07:50:05;7.97;;;3.00;;
41887;SDS011;63122;52.424;13.458;2023-07-31T07:52:04;11.93;;;3.80;;
41887;SDS011;63122;52.424;13.458;2023-07-31T07:54:00;11.57;;;3.10;;
41887;SDS011;63122;52.424;13.458;2023-07-31T07:55:56;7.60;;;3.53;;
41887;SDS011;63122;52.424;13.458;2023-07-31T07:57:49;5.28;;;2.70;;
41887;SDS011;63122;52.424;13.458;2023-07-31T07:59:45;8.82;;;3.15;;
41887;SDS011;63122;52.424;13.458;2023-07-31T08:01:41;6.28;;;2.95;;
41887;SDS011;63122;52.424;13.458;2023-07-31T08:03:34;2.03;;;1.33;;
41887;SDS011;63122;52.424;13.458;2023-07-31T08:05:29;8.80;;;3.00;;
41887;SDS011;63122;52.424;13.458;2023-07-31T08:07:29;6.15;;;2.67;;
41887;SDS011;63122;52.424;13.458;2023-07-31T08:09:24;3.55;;;2.30;;
41887;SDS011;63122;52.424;13.458;2023-07-31T08:11:17;4.95;;;3.10;;
41887;SDS011;63122;52.424;13.458;2023-07-31T08:13:14;4.05;;;2.60;;
41887;SDS011;63122;52.424;13.458;2023-07-31T08:15:10;6.78;;;2.97;;
41887;SDS011;63122;52.424;13.458;2023-07-31T08:17:05;5.03;;;2.88;;
41887;SDS011;63122;52.424;13.458;2023-07-31T08:19:01;5.60;;;2.90;;
41887;SDS011;63122;52.424;13.458;2023-07-31T08:20:57;7.28;;;3.03;;
41887;SDS011;63122;52.424;13.458;2023-07-31T08:22:55;8.35;;;3.10;;
41887;SDS011;63122;52.424;13.458;2023-07-31T08:24:50;8.77;;;3.25;;
41887;SDS011;63122;52.424;13.458;2023-07-31T08:26:46;7.15;;;3.20;;
41887;SDS011;63122;52.424;13.458;2023-07-31T08:28:41;10.40;;;3.33;;
41887;SDS011;63122;52.424;13.458;2023-07-31T08:30:37;8.30;;;3.60;;
41887;SDS011;63122;52.424;13.458;2023-07-31T08:32:29;7.15;;;3.42;;
41887;SDS011;63122;52.424;13.458;2023-07-31T08:34:25;11.20;;;3.58;;
41887;SDS011;63122;52.424;13.458;2023-07-31T08:36:20;6.47;;;3.33;;
41887;SDS011;63122;52.424;13.458;2023-07-31T08:38:20;7.78;;;2.90;;
41887;SDS011;63122;52.424;13.458;2023-07-31T08:40:17;10.25;;;2.88;;
41887;SDS011;63122;52.424;13.458;2023-07-31T08:42:13;6.18;;;3.10;;
41887;SDS011;63122;52.424;13.458;2023-07-31T08:44:08;10.02;;;3.15;;
41887;SDS011;63122;52.424;13.458;2023-07-31T08:46:05;7.03;;;3.10;;
41887;SDS011;63122;52.424;13.458;2023-07-31T08:48:01;9.65;;;3.55;;
41887;SDS011;63122;52.424;13.458;2023-07-31T08:49:54;7.30;;;2.92;;
41887;SDS011;63122;52.424;13.458;2023-07-31T08:51:51;6.95;;;2.92;;
41887;SDS011;63122;52.424;13.458;2023-07-31T08:53:52;6.85;;;3.10;;
41887;SDS011;63122;52.424;13.458;2023-07-31T08:55:49;6.22;;;2.95;;
41887;SDS011;63122;52.424;13.458;2023-07-31T08:57:47;5.20;;;2.78;;
41887;SDS011;63122;52.424;13.458;2023-07-31T08:59:42;5.63;;;2.40;;
41887;SDS011;63122;52.424;13.458;2023-07-31T09:01:37;2.72;;;1.77;;
41887;SDS011;63122;52.424;13.458;2023-07-31T09:03:38;4.32;;;2.20;;
41887;SDS011;63122;52.424;13.458;2023-07-31T09:05:36;5.68;;;2.28;;
41887;SDS011;63122;52.424;13.458;2023-07-31T09:07:33;5.18;;;2.60;;
41887;SDS011;63122;52.424;13.458;2023-07-31T09:09:32;4.57;;;2.33;;
41887;SDS011;63122;52.424;13.458;2023-07-31T09:11:28;7.55;;;3.00;;
41887;SDS011;63122;52.424;13.458;2023-07-31T09:13:23;7.25;;;2.38;;
41887;SDS011;63122;52.424;13.458;2023-07-31T09:15:19;2.75;;;1.90;;
41887;SDS011;63122;52.424;13.458;2023-07-31T09:17:28;6.03;;;1.48;;
41887;SDS011;63122;52.424;13.458;2023-07-31T09:19:25;3.60;;;2.08;;
41887;SDS011;63122;52.424;13.458;2023-07-31T09:21:22;1.70;;;1.08;;
41887;SDS011;63122;52.424;13.458;2023-07-31T09:23:20;4.03;;;1.90;;
41887;SDS011;63122;52.424;13.458;2023-07-31T09:25:18;3.22;;;1.42;;
41887;SDS011;63122;52.424;13.458;2023-07-31T09:27:15;3.83;;;1.60;;
41887;SDS011;63122;52.424;13.458;2023-07-31T09:29:07;2.92;;;1.23;;
41887;SDS011;63122;52.424;13.458;2023-07-31T09:31:13;3.42;;;1.45;;
41887;SDS011;63122;52.424;13.458;2023-07-31T09:33:09;1.27;;;1.15;;
41887;SDS011;63122;52.424;13.458;2023-07-31T09:35:12;3.28;;;1.25;;
41887;SDS011;63122;52.424;13.458;2023-07-31T09:37:09;1.42;;;1.00;;
41887;SDS011;63122;52.424;13.458;2023-07-31T09:39:06;2.10;;;1.00;;
41887;SDS011;63122;52.424;13.458;2023-07-31T09:41:04;1.40;;;0.90;;
41887;SDS011;63122;52.424;13.458;2023-07-31T09:43:01;1.48;;;0.90;;
41887;SDS011;63122;52.424;13.458;2023-07-31T09:45:06;2.38;;;1.17;;
41887;SDS011;63122;52.424;13.458;2023-07-31T09:47:00;4.00;;;1.00;;
41887;SDS011;63122;52.424;13.458;2023-07-31T09:49:03;2.53;;;1.20;;
41887;SDS011;63122;52.424;13.458;2023-07-31T09:50:57;4.53;;;1.73;;
41887;SDS011;63122;52.424;13.458;2023-07-31T09:53:00;3.05;;;1.60;;
41887;SDS011;63122;52.424;13.458;2023-07-31T09:54:55;3.03;;;1.50;;
41887;SDS011;63122;52.424;13.458;2023-07-31T09:56:53;9.23;;;2.15;;
41887;SDS011;63122;52.424;13.458;2023-07-31T09:58:51;5.88;;;2.13;;
41887;SDS011;63122;52.424;13.458;2023-07-31T10:00:44;3.97;;;2.10;;
41887;SDS011;63122;52.424;13.458;2023-07-31T10:02:40;5.25;;;2.20;;
41887;SDS011;63122;52.424;13.458;2023-07-31T10:04:39;3.53;;;2.20;;
41887;SDS011;63122;52.424;13.458;2023-07-31T10:06:38;5.07;;;2.17;;
41887;SDS011;63122;52.424;13.458;2023-07-31T10:08:35;5.00;;;2.25;;
41887;SDS011;63122;52.424;13.458;2023-07-31T10:10:32;6.57;;;2.25;;
41887;SDS011;63122;52.424;13.458;2023-07-31T10:12:33;6.50;;;2.65;;
41887;SDS011;63122;52.424;13.458;2023-07-31T10:14:29;4.57;;;2.30;;
41887;SDS011;63122;52.424;13.458;2023-07-31T10:16:25;11.82;;;2.95;;
41887;SDS011;63122;52.424;13.458;2023-07-31T10:18:21;4.10;;;2.20;;
41887;SDS011;63122;52.424;13.458;2023-07-31T10:20:17;8.93;;;3.08;;
41887;SDS011;63122;52.424;13.458;2023-07-31T10:22:13;8.45;;;3.22;;
41887;SDS011;63122;52.424;13.458;2023-07-31T10:24:10;10.20;;;3.30;;
41887;SDS011;63122;52.424;13.458;2023-07-31T10:26:07;8.80;;;3.35;;
41887;SDS011;63122;52.424;13.458;2023-07-31T10:28:06;9.27;;;3.45;;
41887;SDS011;63122;52.424;13.458;2023-07-31T10:30:01;10.50;;;3.50;;
41887;SDS011;63122;52.424;13.458;2023-07-31T10:32:00;8.23;;;3.42;;
41887;SDS011;63122;52.424;13.458;2023-07-31T10:33:59;7.53;;;3.17;;
41887;SDS011;63122;52.424;13.458;2023-07-31T10:38:09;7.97;;;3.45;;
41887;SDS011;63122;52.424;13.458;2023-07-31T10:40:06;9.35;;;3.67;;
41887;SDS011;63122;52.424;13.458;2023-07-31T10:42:11;7.20;;;3.33;;
41887;SDS011;63122;52.424;13.458;2023-07-31T10:44:08;7.82;;;3.70;;
41887;SDS011;63122;52.424;13.458;2023-07-31T10:46:06;13.13;;;4.53;;
41887;SDS011;63122;52.424;13.458;2023-07-31T10:48:01;10.00;;;4.38;;
41887;SDS011;63122;52.424;13.458;2023-07-31T10:50:13;8.15;;;3.75;;
41887;SDS011;63122;52.424;13.458;2023-07-31T10:52:10;9.38;;;3.30;;
41887;SDS011;63122;52.424;13.458;2023-07-31T10:54:11;10.93;;;3.95;;
41887;SDS011;63122;52.424;13.458;2023-07-31T10:56:05;8.95;;;3.35;;
41887;SDS011;63122;52.424;13.458;2023-07-31T10:58:05;8.40;;;3.75;;
41887;SDS011;63122;52.424;13.458;2023-07-31T11:02:25;6.55;;;3.13;;
41887;SDS011;63122;52.424;13.458;2023-07-31T11:04:25;8.90;;;3.25;;
41887;SDS011;63122;52.424;13.458;2023-07-31T11:06:23;7.05;;;3.30;;
41887;SDS011;63122;52.424;13.458;2023-07-31T11:10:40;6.57;;;3.35;;
41887;SDS011;63122;52.424;13.458;2023-07-31T11:12:41;6.85;;;3.08;;
41887;SDS011;63122;52.424;13.458;2023-07-31T11:15:30;7.50;;;3.22;;
41887;SDS011;63122;52.424;13.458;2023-07-31T11:17:26;2.47;;;1.60;;
41887;SDS011;63122;52.424;13.458;2023-07-31T11:19:22;2.17;;;1.27;;
41887;SDS011;63122;52.424;13.458;2023-07-31T11:21:19;4.07;;;1.88;;
41887;SDS011;63122;52.424;13.458;2023-07-31T11:23:16;8.90;;;2.78;;
41887;SDS011;63122;52.424;13.458;2023-07-31T11:25:11;7.80;;;3.28;;
41887;SDS011;63122;52.424;13.458;2023-07-31T11:27:07;5.13;;;2.50;;
41887;SDS011;63122;52.424;13.458;2023-07-31T11:29:10;7.38;;;3.00;;
41887;SDS011;63122;52.424;13.458;2023-07-31T11:31:08;5.95;;;2.58;;
41887;SDS011;63122;52.424;13.458;2023-07-31T11:33:04;8.32;;;2.08;;
41887;SDS011;63122;52.424;13.458;2023-07-31T11:35:00;8.18;;;2.60;;
41887;SDS011;63122;52.424;13.458;2023-07-31T11:36:53;7.22;;;2.70;;
41887;SDS011;63122;52.424;13.458;2023-07-31T11:38:49;10.57;;;3.30;;
41887;SDS011;63122;52.424;13.458;2023-07-31T11:40:45;5.35;;;2.60;;